createdAt,value
2019-03-19T00:01:14.087Z,12.01
2019-03-19T00:03:44.659Z,11.97
2019-03-19T00:06:15.562Z,11.83
2019-03-19T00:08:48.128Z,11.70
2019-03-19T00:11:18.846Z,11.80
2019-03-19T00:13:49.701Z,11.67
2019-03-19T00:16:22.286Z,11.57
2019-03-19T00:18:53.224Z,11.52
2019-03-19T00:21:23.775Z,11.52
2019-03-19T00:23:54.558Z,11.50
2019-03-19T00:26:25.181Z,11.40
2019-03-19T00:28:57.604Z,11.39
2019-03-19T00:31:28.344Z,11.37
2019-03-19T00:33:58.898Z,11.33
2019-03-19T00:36:30.719Z,11.18
2019-03-19T00:39:01.929Z,11.14
2019-03-19T00:41:32.499Z,11.15
2019-03-19T00:44:02.996Z,11.22
2019-03-19T00:46:33.613Z,11.16
2019-03-19T00:49:06.650Z,11.04
2019-03-19T00:51:36.706Z,11.15
2019-03-19T00:54:07.487Z,10.99
2019-03-19T00:56:38.187Z,10.89
2019-03-19T00:59:08.957Z,10.90
2019-03-19T01:01:39.451Z,11.00
2019-03-19T01:04:10.185Z,11.05
2019-03-19T01:06:41.040Z,11.07
2019-03-19T01:09:11.549Z,11.20
2019-03-19T01:11:42.088Z,11.15
2019-03-19T01:14:12.718Z,11.11
2019-03-19T01:16:43.648Z,11.13
2019-03-19T01:19:16.812Z,11.30
2019-03-19T01:21:47.610Z,11.21
2019-03-19T01:24:18.383Z,11.16
2019-03-19T01:26:49.151Z,11.14
2019-03-19T01:29:21.678Z,11.15
2019-03-19T01:31:52.103Z,11.16
2019-03-19T01:34:25.828Z,11.12
2019-03-19T01:36:56.395Z,11.03
2019-03-19T01:39:27.039Z,11.13
2019-03-19T01:41:57.718Z,11.01
2019-03-19T01:44:31.086Z,10.92
2019-03-19T01:47:01.758Z,10.84
2019-03-19T01:49:32.721Z,10.77
2019-03-19T01:52:04.472Z,10.76
2019-03-19T01:54:35.086Z,10.79
2019-03-19T01:57:08.469Z,10.72
2019-03-19T01:59:40.969Z,10.63
2019-03-19T02:02:11.647Z,10.53
2019-03-19T02:04:42.428Z,10.61
2019-03-19T02:07:13.136Z,10.56
2019-03-19T02:09:43.982Z,10.49
2019-03-19T02:12:14.731Z,10.46
2019-03-19T02:14:45.494Z,10.42
2019-03-19T02:17:19.475Z,10.41
2019-03-19T02:19:50.183Z,10.40
2019-03-19T02:22:20.951Z,10.45
2019-03-19T02:24:54.148Z,10.49
2019-03-19T02:27:24.643Z,10.50
2019-03-19T02:29:59.360Z,10.53
2019-03-19T02:32:30.178Z,10.58
2019-03-19T02:35:01.043Z,10.57
2019-03-19T02:37:31.764Z,10.58
2019-03-19T02:40:02.301Z,10.51
2019-03-19T02:42:33.122Z,10.42
2019-03-19T02:45:03.843Z,10.21
2019-03-19T02:47:34.552Z,10.31
2019-03-19T02:50:06.054Z,10.34
2019-03-19T02:52:38.432Z,10.43
2019-03-19T02:55:12.790Z,10.38
2019-03-19T02:57:43.382Z,10.34
2019-03-19T03:00:16.944Z,10.36
2019-03-19T03:02:47.976Z,10.35
2019-03-19T03:05:19.013Z,10.42
2019-03-19T03:07:50.910Z,10.38
2019-03-19T03:10:21.715Z,10.31
2019-03-19T03:12:52.382Z,10.33
2019-03-19T03:15:23.056Z,10.35
2019-03-19T03:17:54.973Z,10.34
2019-03-19T03:20:25.835Z,10.33
2019-03-19T03:22:56.531Z,10.37
2019-03-19T03:25:27.093Z,10.30
2019-03-19T03:27:57.837Z,10.28
2019-03-19T03:30:29.805Z,10.27
2019-03-19T03:33:00.750Z,10.27
2019-03-19T03:35:31.354Z,10.25
2019-03-19T03:38:04.979Z,10.21
2019-03-19T03:40:37.792Z,10.20
2019-03-19T03:43:08.379Z,10.16
2019-03-19T03:45:39.063Z,10.10
2019-03-19T03:48:09.740Z,10.07
2019-03-19T03:50:40.592Z,10.10
2019-03-19T03:53:11.145Z,10.13
2019-03-19T03:55:42.116Z,10.14
2019-03-19T03:58:14.671Z,10.10
2019-03-19T04:00:48.072Z,10.05
2019-03-19T04:03:19.877Z,10.08
2019-03-19T04:05:51.802Z,10.51
2019-03-19T04:08:22.432Z,10.90
2019-03-19T04:10:55.490Z,11.33
2019-03-19T04:13:27.884Z,11.83
2019-03-19T04:15:58.442Z,12.23
2019-03-19T04:18:28.842Z,12.46
2019-03-19T04:20:59.299Z,12.51
2019-03-19T04:23:30.087Z,12.47
2019-03-19T04:26:00.555Z,12.41
2019-03-19T04:28:31.337Z,12.30
2019-03-19T04:31:01.948Z,11.99
2019-03-19T04:33:32.437Z,11.75
2019-03-19T04:36:02.964Z,11.83
2019-03-19T04:38:34.852Z,11.75
2019-03-19T04:41:05.447Z,11.64
2019-03-19T04:43:35.962Z,11.55
2019-03-19T04:46:06.654Z,11.42
2019-03-19T04:48:37.200Z,11.28
2019-03-19T04:51:11.173Z,11.20
2019-03-19T04:53:43.030Z,11.14
2019-03-19T04:56:13.411Z,11.13
2019-03-19T04:58:44.256Z,11.08
2019-03-19T05:01:14.833Z,11.10
2019-03-19T05:03:45.446Z,11.11
2019-03-19T05:06:15.935Z,11.14
2019-03-19T05:08:46.600Z,11.14
2019-03-19T05:11:17.279Z,11.17
2019-03-19T05:13:47.864Z,11.29
2019-03-19T05:16:18.519Z,11.44
2019-03-19T05:18:49.020Z,11.56
2019-03-19T05:21:19.827Z,11.64
2019-03-19T05:23:50.343Z,11.62
2019-03-19T05:26:21.017Z,11.81
2019-03-19T05:28:53.027Z,11.98
2019-03-19T05:31:24.096Z,11.94
2019-03-19T05:33:56.397Z,11.93
2019-03-19T05:36:26.855Z,11.96
2019-03-19T05:38:57.426Z,12.15
2019-03-19T05:41:28.027Z,12.10
2019-03-19T05:43:58.762Z,12.11
2019-03-19T05:46:29.314Z,12.11
2019-03-19T05:49:00.030Z,12.28
2019-03-19T05:51:30.382Z,12.40
2019-03-19T05:54:01.033Z,12.51
2019-03-19T05:56:31.857Z,12.63
2019-03-19T05:59:02.460Z,12.68
2019-03-19T06:01:32.910Z,12.77
2019-03-19T06:04:03.503Z,12.86
2019-03-19T06:06:34.214Z,12.95
2019-03-19T06:09:05.237Z,13.17
2019-03-19T06:11:35.695Z,13.38
2019-03-19T06:14:06.207Z,13.40
2019-03-19T06:16:36.929Z,13.54
2019-03-19T06:19:07.354Z,13.64
2019-03-19T06:21:37.838Z,13.86
2019-03-19T06:24:08.556Z,14.01
2019-03-19T06:26:39.153Z,14.05
2019-03-19T06:29:09.864Z,14.19
2019-03-19T06:31:40.242Z,14.33
2019-03-19T06:34:11.003Z,14.43
2019-03-19T06:36:41.360Z,14.54
2019-03-19T06:39:12.026Z,14.64
2019-03-19T06:41:42.819Z,14.75
2019-03-19T06:44:13.535Z,14.96
2019-03-19T06:46:44.017Z,14.98
2019-03-19T06:49:14.854Z,15.02
2019-03-19T06:51:45.695Z,15.11
2019-03-19T06:54:16.293Z,15.17
2019-03-19T06:56:46.813Z,15.29
2019-03-19T06:59:17.201Z,15.42
2019-03-19T07:01:47.615Z,15.54
2019-03-19T07:04:19.490Z,15.67
2019-03-19T07:06:50.100Z,15.71
2019-03-19T07:09:20.622Z,15.78
2019-03-19T07:11:51.105Z,15.91
2019-03-19T07:14:21.792Z,16.22
2019-03-19T07:16:52.811Z,16.54
2019-03-19T07:19:23.570Z,16.53
2019-03-19T07:21:53.982Z,16.90
2019-03-19T07:24:24.282Z,18.15
2019-03-19T07:26:54.885Z,19.41
2019-03-19T07:29:26.183Z,20.49
2019-03-19T07:31:56.725Z,21.71
2019-03-19T07:34:27.300Z,22.78
2019-03-19T07:36:57.829Z,23.43
2019-03-19T07:39:28.460Z,23.61
2019-03-19T07:41:59.162Z,23.45
2019-03-19T07:44:29.441Z,23.53
2019-03-19T07:47:00.012Z,23.37
2019-03-19T07:49:30.515Z,22.72
2019-03-19T07:52:01.152Z,22.16
2019-03-19T07:54:31.557Z,22.15
2019-03-19T07:57:02.108Z,22.78
2019-03-19T07:59:32.732Z,23.94
2019-03-19T08:02:03.360Z,24.68
2019-03-19T08:04:33.717Z,25.78
2019-03-19T08:07:04.214Z,26.87
2019-03-19T08:09:34.760Z,28.57
2019-03-19T08:12:05.396Z,29.71
2019-03-19T08:14:35.473Z,30.94
2019-03-19T08:17:06.056Z,31.28
2019-03-19T08:19:36.538Z,31.70
2019-03-19T08:22:07.233Z,31.21
2019-03-19T08:24:37.784Z,30.80
2019-03-19T08:27:08.397Z,31.52
2019-03-19T08:29:38.799Z,31.62
2019-03-19T08:32:09.255Z,31.99
2019-03-19T08:34:40.162Z,32.27
2019-03-19T08:37:10.646Z,31.91
2019-03-19T08:39:40.937Z,31.47
2019-03-19T08:42:11.493Z,31.58
2019-03-19T08:44:41.941Z,32.25
2019-03-19T08:47:12.524Z,32.94
2019-03-19T08:49:42.878Z,34.25
2019-03-19T08:52:13.301Z,34.39
2019-03-19T08:54:43.634Z,34.52
2019-03-19T08:57:14.304Z,35.00
2019-03-19T08:59:44.762Z,35.17
2019-03-19T09:02:15.442Z,35.49
2019-03-19T09:04:46.164Z,36.64
2019-03-19T09:07:16.764Z,37.43
2019-03-19T09:09:47.074Z,37.53
2019-03-19T09:12:17.712Z,37.47
2019-03-19T09:14:48.244Z,38.04
2019-03-19T09:17:18.803Z,38.67
2019-03-19T09:19:49.405Z,38.88
2019-03-19T09:22:19.940Z,38.61
2019-03-19T09:24:50.226Z,38.53
2019-03-19T09:27:20.701Z,38.43
2019-03-19T09:29:51.178Z,37.10
2019-03-19T09:32:21.963Z,37.27
2019-03-19T09:34:52.562Z,36.63
2019-03-19T09:37:23.181Z,35.27
2019-03-19T09:39:53.522Z,34.99
2019-03-19T09:42:23.868Z,34.86
2019-03-19T09:44:58.389Z,33.96
2019-03-19T09:47:26.605Z,33.76
2019-03-19T09:49:57.117Z,34.15
2019-03-19T09:52:27.559Z,35.23
2019-03-19T09:54:58.357Z,36.02
2019-03-19T09:57:28.820Z,37.13
2019-03-19T09:59:59.097Z,38.60
2019-03-19T10:02:29.453Z,39.67
2019-03-19T10:05:00.044Z,40.50
2019-03-19T10:07:30.460Z,40.98
2019-03-19T10:10:00.825Z,41.47
2019-03-19T10:12:31.343Z,42.42
2019-03-19T10:15:02.065Z,42.66
2019-03-19T10:17:32.560Z,43.05
2019-03-19T10:20:03.131Z,43.76
2019-03-19T10:22:33.497Z,44.20
2019-03-19T10:25:04.212Z,42.27
2019-03-19T10:27:34.995Z,41.33
2019-03-19T10:30:06.370Z,42.61
2019-03-19T10:32:36.698Z,42.51
2019-03-19T10:35:09.670Z,43.02
2019-03-19T10:37:40.072Z,43.32
2019-03-19T10:40:12.214Z,44.44
2019-03-19T10:42:42.800Z,45.23
2019-03-19T10:45:13.603Z,45.60
2019-03-19T10:47:44.097Z,46.26
2019-03-19T10:50:19.635Z,46.58
2019-03-19T10:52:50.381Z,46.73
2019-03-19T10:55:21.160Z,47.29
2019-03-19T10:57:51.885Z,47.03
2019-03-19T11:00:23.256Z,47.11
2019-03-19T11:02:53.988Z,47.56
2019-03-19T11:05:24.728Z,48.12
2019-03-19T11:07:55.329Z,48.11
2019-03-19T11:10:28.396Z,48.30
2019-03-19T11:12:59.115Z,47.89
2019-03-19T11:15:31.676Z,48.22
2019-03-19T11:18:01.940Z,48.50
2019-03-19T11:20:32.642Z,48.37
2019-03-19T11:23:03.270Z,47.61
2019-03-19T11:25:33.968Z,46.28
2019-03-19T11:28:04.372Z,45.15
2019-03-19T11:30:34.997Z,45.62
2019-03-19T11:33:05.538Z,45.85
2019-03-19T11:35:35.843Z,46.52
2019-03-19T11:38:06.563Z,46.97
2019-03-19T11:40:37.135Z,47.01
2019-03-19T11:43:07.803Z,47.38
2019-03-19T11:45:38.373Z,47.94
2019-03-19T11:48:09.092Z,48.35
2019-03-19T11:50:39.489Z,48.02
2019-03-19T11:53:10.249Z,47.70
2019-03-19T11:55:40.916Z,48.01
2019-03-19T11:58:11.430Z,47.62
2019-03-19T12:00:46.378Z,47.85
2019-03-19T12:03:17.213Z,47.85
2019-03-19T12:05:47.947Z,47.05
2019-03-19T12:08:18.480Z,46.55
2019-03-19T12:10:48.833Z,46.91
2019-03-19T12:13:19.526Z,47.20
2019-03-19T12:15:50.026Z,46.70
2019-03-19T12:18:20.534Z,46.86
2019-03-19T12:20:50.998Z,46.18
2019-03-19T12:23:21.605Z,44.70
2019-03-19T12:25:51.965Z,41.72
2019-03-19T12:28:22.297Z,40.72
2019-03-19T12:30:54.841Z,40.93
2019-03-19T12:33:25.219Z,41.75
2019-03-19T12:35:57.801Z,42.11
2019-03-19T12:38:27.949Z,41.96
2019-03-19T12:40:58.281Z,42.44
2019-03-19T12:43:28.825Z,43.22
2019-03-19T12:45:59.254Z,43.73
2019-03-19T12:48:29.496Z,43.43
2019-03-19T12:50:59.901Z,43.29
2019-03-19T12:53:30.564Z,42.33
2019-03-19T12:56:01.774Z,40.96
2019-03-19T12:58:32.240Z,38.26
2019-03-19T13:01:02.867Z,37.55
2019-03-19T13:03:33.087Z,36.55
2019-03-19T13:06:03.830Z,35.49
2019-03-19T13:08:34.619Z,34.06
2019-03-19T13:11:05.082Z,33.04
2019-03-19T13:13:35.576Z,32.21
2019-03-19T13:16:06.022Z,31.61
2019-03-19T13:18:36.487Z,31.19
2019-03-19T13:21:06.901Z,30.31
2019-03-19T13:23:37.313Z,29.91
2019-03-19T13:26:07.702Z,29.70
2019-03-19T13:28:38.035Z,29.29
2019-03-19T13:31:08.443Z,29.20
2019-03-19T13:33:38.812Z,29.08
2019-03-19T13:36:09.502Z,28.96
2019-03-19T13:38:40.079Z,28.87
2019-03-19T13:41:10.781Z,28.96
2019-03-19T13:43:41.547Z,28.88
2019-03-19T13:46:12.026Z,28.84
2019-03-19T13:48:42.703Z,28.65
2019-03-19T13:51:13.241Z,28.83
2019-03-19T13:53:44.106Z,28.73
2019-03-19T13:56:14.492Z,28.54
2019-03-19T13:58:44.871Z,28.59
2019-03-19T14:01:15.506Z,28.74
2019-03-19T14:03:46.080Z,28.78
2019-03-19T14:06:16.565Z,28.61
2019-03-19T14:08:47.261Z,28.03
2019-03-19T14:11:20.536Z,27.55
2019-03-19T14:13:51.381Z,27.58
2019-03-19T14:16:21.950Z,27.42
2019-03-19T14:18:52.625Z,26.69
2019-03-19T14:21:23.370Z,26.11
2019-03-19T14:23:53.739Z,26.30
2019-03-19T14:26:24.413Z,26.06
2019-03-19T14:28:54.998Z,26.31
2019-03-19T14:31:25.430Z,26.41
2019-03-19T14:33:55.753Z,26.40
2019-03-19T14:36:26.298Z,26.36
2019-03-19T14:38:56.720Z,26.04
2019-03-19T14:41:27.449Z,25.30
2019-03-19T14:43:57.798Z,25.46
2019-03-19T14:46:28.423Z,25.43
2019-03-19T14:48:59.156Z,25.35
2019-03-19T14:51:29.509Z,25.36
2019-03-19T14:53:59.950Z,25.12
2019-03-19T14:56:30.733Z,25.14
2019-03-19T14:59:01.281Z,25.08
2019-03-19T15:01:31.773Z,24.78
2019-03-19T15:04:02.284Z,24.59
2019-03-19T15:06:32.717Z,24.72
2019-03-19T15:09:03.364Z,24.81
2019-03-19T15:11:33.837Z,24.69
2019-03-19T15:14:04.303Z,24.32
2019-03-19T15:16:34.849Z,24.33
2019-03-19T15:19:05.302Z,24.04
2019-03-19T15:21:35.689Z,24.08
2019-03-19T15:24:06.327Z,23.86
2019-03-19T15:26:36.899Z,23.95
2019-03-19T15:29:07.381Z,23.81
2019-03-19T15:31:38.213Z,23.50
2019-03-19T15:34:09.093Z,23.48
2019-03-19T15:36:39.573Z,23.43
2019-03-19T15:39:10.603Z,23.32
2019-03-19T15:41:41.108Z,23.20
2019-03-19T15:44:11.873Z,23.34
2019-03-19T15:46:42.420Z,23.17
2019-03-19T15:49:12.902Z,23.13
2019-03-19T15:51:43.542Z,23.21
2019-03-19T15:54:14.201Z,23.20
2019-03-19T15:56:44.622Z,23.02
2019-03-19T15:59:14.802Z,22.80
2019-03-19T16:01:45.155Z,22.78
2019-03-19T16:04:15.710Z,22.65
2019-03-19T16:06:46.121Z,22.63
2019-03-19T16:09:16.797Z,22.30
2019-03-19T16:11:47.794Z,22.17
2019-03-19T16:14:18.752Z,21.98
2019-03-19T16:16:49.284Z,21.68
2019-03-19T16:19:19.994Z,21.71
2019-03-19T16:21:50.771Z,21.49
2019-03-19T16:24:21.251Z,21.33
2019-03-19T16:26:52.066Z,21.12
2019-03-19T16:29:22.735Z,20.98
2019-03-19T16:31:53.421Z,20.85
2019-03-19T16:34:24.007Z,21.02
2019-03-19T16:36:54.791Z,21.09
2019-03-19T16:39:25.427Z,21.03
2019-03-19T16:41:56.102Z,20.94
2019-03-19T16:44:26.536Z,20.72
2019-03-19T16:46:57.199Z,20.77
2019-03-19T16:49:27.888Z,20.71
2019-03-19T16:51:58.392Z,20.72
2019-03-19T16:54:28.982Z,20.55
2019-03-19T16:56:59.511Z,20.46
2019-03-19T16:59:30.027Z,20.17
2019-03-19T17:02:01.671Z,19.92
2019-03-19T17:04:32.867Z,19.84
2019-03-19T17:07:03.583Z,19.82
2019-03-19T17:09:33.976Z,19.76
2019-03-19T17:12:04.561Z,19.67
2019-03-19T17:14:35.048Z,19.44
2019-03-19T17:17:05.687Z,19.13
2019-03-19T17:19:36.155Z,19.22
2019-03-19T17:22:06.978Z,19.20
2019-03-19T17:24:37.445Z,19.13
2019-03-19T17:27:07.772Z,19.04
2019-03-19T17:29:38.298Z,18.93
2019-03-19T17:32:12.799Z,18.82
2019-03-19T17:34:41.036Z,18.84
2019-03-19T17:37:11.655Z,18.95
2019-03-19T17:39:42.411Z,18.91
2019-03-19T17:42:13.107Z,18.93
2019-03-19T17:44:43.613Z,18.91
2019-03-19T17:47:14.447Z,18.78
2019-03-19T17:49:46.778Z,18.84
2019-03-19T17:52:17.217Z,18.72
2019-03-19T17:54:47.595Z,18.68
2019-03-19T17:57:18.250Z,18.63
2019-03-19T17:59:48.894Z,18.49
2019-03-19T18:02:23.852Z,18.48
2019-03-19T18:04:51.639Z,18.62
2019-03-19T18:07:22.911Z,18.85
2019-03-19T18:09:53.422Z,18.88
2019-03-19T18:12:24.101Z,18.57
2019-03-19T18:14:54.609Z,18.43
2019-03-19T18:17:25.609Z,18.47
2019-03-19T18:19:56.278Z,18.63
2019-03-19T18:22:32.162Z,18.62
2019-03-19T18:25:03.325Z,18.66
2019-03-19T18:27:34.666Z,18.81
2019-03-19T18:30:06.887Z,18.81
2019-03-19T18:32:37.742Z,18.82
2019-03-19T18:35:08.722Z,18.76
2019-03-19T18:37:41.946Z,18.67
2019-03-19T18:40:12.718Z,18.61
2019-03-19T18:42:43.380Z,18.63
2019-03-19T18:45:13.891Z,18.61
2019-03-19T18:47:44.472Z,18.65
2019-03-19T18:50:17.810Z,18.70
2019-03-19T18:52:48.514Z,18.58
2019-03-19T18:55:19.410Z,18.38
2019-03-19T18:57:49.947Z,18.52
2019-03-19T19:00:23.581Z,18.43
2019-03-19T19:02:55.931Z,18.23
2019-03-19T19:05:26.921Z,18.01
2019-03-19T19:07:58.806Z,17.80
2019-03-19T19:10:29.572Z,17.60
2019-03-19T19:13:00.488Z,17.56
2019-03-19T19:15:31.324Z,17.38
2019-03-19T19:18:02.121Z,16.99
2019-03-19T19:20:32.709Z,16.78
2019-03-19T19:23:03.148Z,16.67
2019-03-19T19:25:33.758Z,16.39
2019-03-19T19:28:04.314Z,16.08
2019-03-19T19:30:35.863Z,16.00
2019-03-19T19:33:06.697Z,15.75
2019-03-19T19:35:37.529Z,15.50
2019-03-19T19:38:10.693Z,15.29
2019-03-19T19:40:43.347Z,15.29
2019-03-19T19:43:13.866Z,15.43
2019-03-19T19:45:45.817Z,15.43
2019-03-19T19:48:16.437Z,15.37
2019-03-19T19:50:47.442Z,15.16
2019-03-19T19:53:18.089Z,14.97
2019-03-19T19:55:51.798Z,14.98
2019-03-19T19:58:22.405Z,14.83
2019-03-19T20:00:53.920Z,14.70
2019-03-19T20:03:24.335Z,14.49
2019-03-19T20:05:55.407Z,14.45
2019-03-19T20:08:25.869Z,14.36
2019-03-19T20:10:56.558Z,14.32
2019-03-19T20:13:28.551Z,14.20
2019-03-19T20:16:00.379Z,14.20
2019-03-19T20:18:32.482Z,14.14
2019-03-19T20:21:03.092Z,14.04
2019-03-19T20:23:33.916Z,14.10
2019-03-19T20:26:04.551Z,14.11
2019-03-19T20:28:35.466Z,14.11
2019-03-19T20:31:06.221Z,14.08
2019-03-19T20:33:36.861Z,13.98
2019-03-19T20:36:07.584Z,14.03
2019-03-19T20:38:38.146Z,14.14
2019-03-19T20:41:08.748Z,14.20
2019-03-19T20:43:39.220Z,14.22
2019-03-19T20:46:09.713Z,14.10
2019-03-19T20:48:40.460Z,14.11
2019-03-19T20:51:11.206Z,14.19
2019-03-19T20:53:43.150Z,14.10
2019-03-19T20:56:15.003Z,14.04
2019-03-19T20:58:45.841Z,14.11
2019-03-19T21:01:16.594Z,14.11
2019-03-19T21:03:47.182Z,14.10
2019-03-19T21:06:17.853Z,14.15
2019-03-19T21:08:48.709Z,14.11
2019-03-19T21:11:19.662Z,14.03
2019-03-19T21:13:50.272Z,14.06
2019-03-19T21:16:21.350Z,14.02
2019-03-19T21:18:53.748Z,14.05
2019-03-19T21:21:26.137Z,14.17
2019-03-19T21:23:57.054Z,14.20
2019-03-19T21:26:27.736Z,14.25
2019-03-19T21:28:58.840Z,14.29
2019-03-19T21:31:29.797Z,14.33
2019-03-19T21:34:00.382Z,14.32
2019-03-19T21:36:32.763Z,14.40
2019-03-19T21:39:04.684Z,14.47
2019-03-19T21:41:36.258Z,14.56
2019-03-19T21:44:06.723Z,14.57
2019-03-19T21:46:37.554Z,14.52
2019-03-19T21:49:10.753Z,14.53
2019-03-19T21:51:40.448Z,14.54
2019-03-19T21:54:11.001Z,14.54
2019-03-19T21:56:41.567Z,14.57
2019-03-19T21:59:12.253Z,14.59
2019-03-19T22:01:42.788Z,14.63
2019-03-19T22:04:13.458Z,14.64
2019-03-19T22:06:44.264Z,14.61
2019-03-19T22:09:14.964Z,14.58
2019-03-19T22:11:45.583Z,14.55
2019-03-19T22:14:16.155Z,14.58
2019-03-19T22:16:47.091Z,14.61
2019-03-19T22:19:19.013Z,14.60
2019-03-19T22:21:49.718Z,14.58
2019-03-19T22:24:20.436Z,14.67
2019-03-19T22:26:51.009Z,14.78
2019-03-19T22:29:21.780Z,14.84
2019-03-19T22:31:54.361Z,14.86
2019-03-19T22:34:24.621Z,14.82
2019-03-19T22:36:55.383Z,14.86
2019-03-19T22:39:26.147Z,14.89
2019-03-19T22:41:59.289Z,14.89
2019-03-19T22:44:29.597Z,14.96
2019-03-19T22:47:00.390Z,15.05
2019-03-19T22:49:36.421Z,14.99
2019-03-19T22:52:07.350Z,15.00
2019-03-19T22:54:37.906Z,15.07
2019-03-19T22:57:08.412Z,15.13
2019-03-19T22:59:39.235Z,14.97
2019-03-19T23:02:09.711Z,14.96
2019-03-19T23:04:40.305Z,14.97
2019-03-19T23:07:13.983Z,14.73
2019-03-19T23:09:44.429Z,14.67
2019-03-19T23:12:14.845Z,14.58
2019-03-19T23:14:45.749Z,14.60
2019-03-19T23:17:18.224Z,14.43
2019-03-19T23:19:48.599Z,14.24
2019-03-19T23:22:19.306Z,14.14
2019-03-19T23:24:49.903Z,14.10
2019-03-19T23:27:20.849Z,14.03
2019-03-19T23:29:51.541Z,13.98
2019-03-19T23:32:22.123Z,14.08
2019-03-19T23:34:52.596Z,13.92
2019-03-19T23:37:23.473Z,13.66
2019-03-19T23:39:53.930Z,13.42
2019-03-19T23:42:24.764Z,13.26
2019-03-19T23:44:55.531Z,13.10
2019-03-19T23:47:26.274Z,13.02
2019-03-19T23:49:56.882Z,12.91
2019-03-19T23:52:27.276Z,12.93
2019-03-19T23:54:57.975Z,12.94
2019-03-19T23:57:28.826Z,12.82
2019-03-19T23:59:59.531Z,12.74
